Time;durP1;ratioP1;P1;durP2;ratioP2;P2;SDS_P1;SDS_P2;PMS_P1;PMS_P2;Temp;Humidity;BMP_temperature;BMP_pressure;BME280_temperature;BME280_humidity;BME280_pressure;Samples;Min_cycle;Max_cycle;Signal;HPM_P1;HPM_P2
2022/05/15 00:00:56;;;;;;;12.80;2.65;;;12.00;99.90;;;;;;5009645;28;20116;-81
2022/05/15 00:03:24;;;;;;;10.32;2.92;;;11.90;99.90;;;;;;5009177;28;20046;-81
2022/05/15 00:06:02;;;;;;;7.57;2.47;;;12.00;99.90;;;;;;4998043;28;20065;-81
2022/05/15 00:08:30;;;;;;;8.10;2.55;;;12.00;99.90;;;;;;4989884;28;20499;-81
2022/05/15 00:10:56;;;;;;;14.63;2.95;;;12.00;99.90;;;;;;5012070;28;20598;-81
2022/05/15 00:13:24;;;;;;;12.13;2.72;;;12.00;99.90;;;;;;4996052;28;20064;-81
2022/05/15 00:15:50;;;;;;;16.83;2.75;;;12.00;99.90;;;;;;5013399;28;20125;-81
2022/05/15 00:18:22;;;;;;;8.38;2.75;;;12.20;99.90;;;;;;5011426;28;20077;-81
2022/05/15 00:20:49;;;;;;;9.65;2.97;;;12.00;99.90;;;;;;5012380;28;20439;-81
2022/05/15 00:23:15;;;;;;;12.25;2.90;;;12.00;99.90;;;;;;4996708;28;20058;-81
2022/05/15 00:25:41;;;;;;;12.48;3.22;;;12.00;99.90;;;;;;4992437;28;20057;-81
2022/05/15 00:28:07;;;;;;;13.52;2.85;;;12.10;99.90;;;;;;4993026;28;20050;-81
2022/05/15 00:30:34;;;;;;;;;;;12.10;99.90;;;;;;4993337;28;20093;-82
2022/05/15 00:33:01;;;;;;;10.30;2.15;;;12.10;99.90;;;;;;4996062;28;19932;-82
2022/05/15 00:35:27;;;;;;;13.77;3.35;;;12.10;99.90;;;;;;5010722;28;20502;-80
2022/05/15 00:37:53;;;;;;;13.02;2.72;;;12.10;99.90;;;;;;5012465;28;20100;-80
2022/05/15 00:40:21;;;;;;;11.43;2.80;;;12.10;99.90;;;;;;5012023;28;20061;-81
2022/05/15 00:42:48;;;;;;;13.63;2.75;;;12.10;99.90;;;;;;5007502;28;20141;-81
2022/05/15 00:45:16;;;;;;;14.95;2.63;;;12.10;99.90;;;;;;4993318;28;20137;-83
2022/05/15 00:47:42;;;;;;;14.15;3.08;;;12.10;99.90;;;;;;4993335;28;20057;-81
2022/05/15 00:50:13;;;;;;;7.55;2.20;;;12.10;99.90;;;;;;4977080;28;20141;-80
2022/05/15 00:52:43;;;;;;;12.70;2.70;;;12.00;99.90;;;;;;4992219;28;20046;-81
2022/05/15 00:55:18;;;;;;;12.05;2.92;;;12.10;99.90;;;;;;4992769;28;20066;-81
2022/05/15 00:58:10;;;;;;;8.55;2.78;;;12.10;99.90;;;;;;4996112;28;20054;-81
2022/05/15 01:00:38;;;;;;;8.65;2.42;;;12.10;99.90;;;;;;4987342;28;20066;-81
2022/05/15 01:03:11;;;;;;;12.98;2.72;;;12.10;99.90;;;;;;5011101;28;20069;-81
2022/05/15 01:05:44;;;;;;;17.65;2.78;;;12.20;99.90;;;;;;4995123;28;20206;-81
2022/05/15 01:08:11;;;;;;;14.60;2.60;;;12.20;99.90;;;;;;5012515;28;20152;-82
2022/05/15 01:10:41;;;;;;;13.75;2.42;;;12.20;99.90;;;;;;5010958;28;20053;-81
2022/05/15 01:13:09;;;;;;;13.50;3.38;;;12.30;99.90;;;;;;5001993;28;20441;-81
2022/05/15 01:15:36;;;;;;;13.60;2.95;;;12.30;99.90;;;;;;4992065;28;20447;-81
2022/05/15 01:18:02;;;;;;;10.23;2.95;;;12.20;99.90;;;;;;4992114;28;20046;-81
2022/05/15 01:20:29;;;;;;;11.77;3.20;;;12.20;99.90;;;;;;5010860;28;20077;-81
2022/05/15 01:22:55;;;;;;;9.55;2.47;;;12.20;99.90;;;;;;4992521;28;20070;-81
2022/05/15 01:25:24;;;;;;;12.98;3.05;;;12.20;99.90;;;;;;4992591;28;20447;-81
2022/05/15 01:28:02;;;;;;;18.92;3.08;;;12.10;99.90;;;;;;4991421;28;20716;-81
2022/05/15 01:30:28;;;;;;;13.27;2.83;;;12.10;99.90;;;;;;4991945;28;20058;-81
2022/05/15 01:32:54;;;;;;;;;;;12.20;99.90;;;;;;4992951;28;20046;-80
2022/05/15 01:35:20;;;;;;;14.40;3.33;;;12.10;99.90;;;;;;4999070;28;20386;-82
2022/05/15 01:37:45;;;;;;;13.35;3.08;;;12.10;99.90;;;;;;5011292;28;20053;-81
2022/05/15 01:40:12;;;;;;;12.48;3.20;;;12.10;99.90;;;;;;5010762;28;20476;-81
2022/05/15 01:42:38;;;;;;;12.68;2.85;;;12.10;99.90;;;;;;5009927;28;20400;-81
2022/05/15 01:45:06;;;;;;;11.75;2.90;;;12.10;99.90;;;;;;5011793;28;20103;-80
2022/05/15 01:47:32;;;;;;;11.50;3.60;;;12.10;99.90;;;;;;4998351;28;20054;-81
2022/05/15 01:49:57;;;;;;;12.30;3.20;;;12.00;99.90;;;;;;4992077;28;20054;-81
2022/05/15 01:52:23;;;;;;;9.88;3.03;;;12.00;99.90;;;;;;5003650;28;20128;-80
2022/05/15 01:54:49;;;;;;;9.98;3.08;;;11.90;99.90;;;;;;5011400;28;20056;-81
2022/05/15 01:57:15;;;;;;;10.13;3.00;;;11.90;99.90;;;;;;5010032;28;20049;-81
2022/05/15 01:59:41;;;;;;;20.85;3.72;;;11.90;99.90;;;;;;5010109;28;20057;-81
2022/05/15 02:02:07;;;;;;;9.23;2.55;;;11.90;99.90;;;;;;5004841;28;20141;-81
2022/05/15 02:04:34;;;;;;;14.30;3.15;;;11.90;99.90;;;;;;4991447;28;20046;-81
2022/05/15 02:07:00;;;;;;;11.45;3.17;;;11.80;99.90;;;;;;5010559;28;20045;-81
2022/05/15 02:09:26;;;;;;;9.25;2.83;;;11.80;99.90;;;;;;4994493;28;20101;-81
2022/05/15 02:11:52;;;;;;;;;;;11.70;99.90;;;;;;5010374;28;20050;-81
2022/05/15 02:14:17;;;;;;;9.55;3.17;;;11.80;99.90;;;;;;5010781;28;19928;-81
2022/05/15 02:16:43;;;;;;;10.20;3.13;;;11.70;99.90;;;;;;5010621;28;20056;-81
2022/05/15 02:19:09;;;;;;;10.77;2.75;;;11.60;99.90;;;;;;5011291;28;20045;-81
2022/05/15 02:21:35;;;;;;;13.18;3.10;;;11.70;99.90;;;;;;5007226;28;20431;-81
2022/05/15 02:24:00;;;;;;;10.60;2.85;;;11.50;99.90;;;;;;5011028;28;20112;-81
2022/05/15 02:26:26;;;;;;;11.15;2.42;;;11.60;99.90;;;;;;5009602;28;20140;-82
2022/05/15 02:28:52;;;;;;;14.77;3.20;;;11.50;99.90;;;;;;5010061;28;20068;-81
2022/05/15 02:31:17;;;;;;;11.77;2.78;;;11.50;99.90;;;;;;5010358;28;20072;-81
2022/05/15 02:33:43;;;;;;;9.38;3.00;;;11.50;99.90;;;;;;4997731;28;20042;-81
2022/05/15 02:36:09;;;;;;;15.70;3.42;;;11.50;99.90;;;;;;4990594;28;20038;-81
2022/05/15 02:38:35;;;;;;;;;;;11.50;99.90;;;;;;4990856;28;20050;-81
2022/05/15 02:41:01;;;;;;;;;;;11.50;99.90;;;;;;4990337;28;19921;-81
2022/05/15 02:43:27;;;;;;;;;;;11.50;99.90;;;;;;4990904;28;19921;-82
2022/05/15 02:45:52;;;;;;;;;;;11.40;99.90;;;;;;5004387;28;19925;-81
2022/05/15 02:51:05;;;;;;;;;;;11.30;99.90;;;;;;5010419;28;19933;-81
2022/05/15 02:53:32;;;;;;;;;;;11.30;99.90;;;;;;4978399;28;19922;-81
2022/05/15 02:55:57;;;;;;;;;;;11.30;99.90;;;;;;4994584;28;20008;-81
2022/05/15 02:58:23;;;;;;;;;;;11.40;99.90;;;;;;4990634;28;20012;-81
2022/05/15 03:00:49;;;;;;;;;;;11.30;99.90;;;;;;4990706;28;20549;-80
2022/05/15 03:03:14;;;;;;;;;;;11.20;99.90;;;;;;4991193;28;20363;-80
2022/05/15 03:05:40;;;;;;;;;;;11.20;99.90;;;;;;4989715;28;20363;-81
2022/05/15 03:08:06;;;;;;;;;;;11.20;99.90;;;;;;4991037;28;19926;-81
2022/05/15 03:10:31;;;;;;;;;;;11.10;99.90;;;;;;4989876;28;20454;-83
2022/05/15 03:12:57;;;;;;;;;;;11.10;99.90;;;;;;4974521;28;19926;-81
2022/05/15 03:15:22;;;;;;;;;;;11.10;99.90;;;;;;4991095;28;20414;-81
2022/05/15 03:17:48;;;;;;;;;;;11.10;99.90;;;;;;4979012;28;20275;-82
2022/05/15 03:20:15;;;;;;;;;;;11.00;99.90;;;;;;5010573;28;20012;-80
2022/05/15 03:22:41;;;;;;;;;;;10.90;99.90;;;;;;5009480;28;20317;-80
2022/05/15 03:25:07;;;;;;;;;;;10.90;99.90;;;;;;4994287;28;19921;-80
2022/05/15 03:27:32;;;;;;;;;;;10.90;99.90;;;;;;5008708;28;19929;-81
2022/05/15 03:29:58;;;;;;;;;;;10.80;99.90;;;;;;5010610;28;20060;-80
2022/05/15 03:32:24;;;;;;;;;;;10.80;99.90;;;;;;4993735;28;19928;-81
2022/05/15 03:34:49;;;;;;;;;;;10.70;99.90;;;;;;5006127;28;19928;-80
2022/05/15 03:37:15;;;;;;;;;;;10.70;99.90;;;;;;4989973;28;20474;-80
2022/05/15 03:39:40;;;;;;;;;;;10.70;99.90;;;;;;4990469;28;19949;-81
2022/05/15 03:42:06;;;;;;;;;;;10.80;99.90;;;;;;4989012;28;19932;-81
2022/05/15 03:44:32;;;;;;;;;;;10.70;99.90;;;;;;4993744;28;19929;-82
2022/05/15 03:46:57;;;;;;;;;;;10.70;99.90;;;;;;5014163;28;19921;-81
2022/05/15 03:49:23;;;;;;;;;;;10.70;99.90;;;;;;4998031;28;19928;-81
2022/05/15 03:51:48;;;;;;;;;;;10.60;99.90;;;;;;5004338;28;20342;-82
2022/05/15 03:54:14;;;;;;;;;;;10.60;99.90;;;;;;4994817;28;19922;-81
2022/05/15 03:56:52;;;;;;;;;;;10.90;99.90;;;;;;4993244;28;19922;-81
2022/05/15 03:59:26;;;;;;;;;;;10.60;99.90;;;;;;4981748;28;19925;-80
2022/05/15 04:01:52;;;;;;;;;;;10.50;99.90;;;;;;4994045;28;20097;-80
2022/05/15 04:04:17;;;;;;;;;;;10.40;99.90;;;;;;4994291;28;20020;-81
2022/05/15 04:06:43;;;;;;;;;;;10.30;99.90;;;;;;5000346;28;19926;-80
2022/05/15 04:09:09;;;;;;;;;;;10.30;99.90;;;;;;5013965;28;19928;-81
2022/05/15 04:11:35;;;;;;;;;;;10.20;99.90;;;;;;5012849;28;20406;-82
2022/05/15 04:14:00;;;;;;;;;;;10.10;99.90;;;;;;5013193;28;20330;-81
2022/05/15 04:16:26;;;;;;;;;;;10.20;99.90;;;;;;4997266;28;20398;-81
2022/05/15 04:18:52;;;;;;;;;;;10.30;99.90;;;;;;5013427;28;19925;-81
2022/05/15 04:21:17;;;;;;;;;;;10.30;99.90;;;;;;5013043;28;19976;-81
2022/05/15 04:23:43;;;;;;;;;;;10.30;99.90;;;;;;5011975;28;19936;-81
2022/05/15 04:26:08;;;;;;;;;;;10.30;99.90;;;;;;5012967;28;19921;-81
2022/05/15 04:28:35;;;;;;;;;;;10.80;99.90;;;;;;4996979;28;20322;-81
2022/05/15 04:31:02;;;;;;;;;;;10.30;99.90;;;;;;5013082;28;19925;-81
2022/05/15 04:33:27;;;;;;;;;;;10.40;99.90;;;;;;4997298;28;19975;-81
2022/05/15 04:35:53;;;;;;;;;;;10.50;99.90;;;;;;5012302;28;19964;-82
2022/05/15 04:38:18;;;;;;;;;;;10.50;99.90;;;;;;4996569;28;20386;-81
2022/05/15 04:40:44;;;;;;;;;;;10.60;99.90;;;;;;4995301;28;19928;-82
2022/05/15 04:43:10;;;;;;;;;;;10.60;99.90;;;;;;5013029;28;19984;-82
2022/05/15 04:45:36;;;;;;;;;;;10.70;99.90;;;;;;4997102;28;19925;-82
2022/05/15 04:48:02;;;;;;;;;;;10.70;99.90;;;;;;5012086;28;20043;-82
2022/05/15 04:50:27;;;;;;;;;;;10.80;99.90;;;;;;5005123;28;19921;-82
2022/05/15 04:52:53;;;;;;;;;;;10.90;99.90;;;;;;4992861;28;19949;-81
2022/05/15 04:55:18;;;;;;;;;;;10.90;99.90;;;;;;4995587;28;19921;-82
2022/05/15 04:57:44;;;;;;;;;;;11.00;99.90;;;;;;5010940;28;19987;-82
2022/05/15 05:00:12;;;;;;;;;;;11.20;99.90;;;;;;4980541;28;19925;-81
2022/05/15 05:02:37;;;;;;;;;;;11.20;99.90;;;;;;5012793;28;20385;-82
2022/05/15 05:05:04;;;;;;;;;;;11.30;99.90;;;;;;4996234;28;19926;-82
2022/05/15 05:07:30;;;;;;;;;;;11.30;99.90;;;;;;4995418;28;19968;-82
2022/05/15 05:09:55;;;;;;;;;;;11.40;99.90;;;;;;5004753;28;19929;-82
2022/05/15 05:12:21;;;;;;;;;;;11.50;99.90;;;;;;4991772;28;19922;-82
2022/05/15 05:14:47;;;;;;;;;;;11.50;99.90;;;;;;4996132;28;19968;-81
2022/05/15 05:17:13;;;;;;;;;;;11.50;99.90;;;;;;5012634;28;19968;-82
2022/05/15 05:19:39;;;;;;;;;;;11.60;99.90;;;;;;4996483;28;19972;-81
2022/05/15 05:22:04;;;;;;;;;;;11.60;99.90;;;;;;5011118;28;19921;-82
2022/05/15 05:24:30;;;;;;;;;;;11.70;99.90;;;;;;5012479;28;19925;-81
2022/05/15 05:26:56;;;;;;;;;;;11.70;99.90;;;;;;5010424;28;20310;-81
2022/05/15 05:29:21;;;;;;;;;;;11.70;99.90;;;;;;4996095;28;19948;-82
2022/05/15 05:31:48;;;;;;;;;;;11.70;99.90;;;;;;5011837;28;19940;-81
2022/05/15 05:34:14;;;;;;;;;;;11.80;99.90;;;;;;5012528;28;19929;-82
2022/05/15 05:36:39;;;;;;;;;;;11.80;99.90;;;;;;4994592;28;19932;-82
2022/05/15 05:39:05;;;;;;;;;;;11.90;99.90;;;;;;4987481;28;19933;-82
2022/05/15 05:41:30;;;;;;;;;;;11.90;99.90;;;;;;5010379;28;19928;-82
2022/05/15 05:43:56;;;;;;;;;;;12.00;99.90;;;;;;4994952;28;19978;-81
2022/05/15 05:46:21;;;;;;;;;;;12.00;99.90;;;;;;5011954;28;20016;-82
2022/05/15 05:48:47;;;;;;;;;;;12.00;99.90;;;;;;5011957;28;19936;-84
2022/05/15 05:51:13;;;;;;;;;;;12.10;99.90;;;;;;5001524;28;19925;-82
2022/05/15 05:53:39;;;;;;;;;;;12.20;99.90;;;;;;4995155;28;19932;-82
2022/05/15 05:56:04;;;;;;;;;;;12.20;99.90;;;;;;5010707;28;19926;-82
2022/05/15 05:58:30;;;;;;;;;;;12.30;99.90;;;;;;5011062;28;19933;-82
2022/05/15 06:00:56;;;;;;;;;;;12.30;99.90;;;;;;5010916;28;19984;-82
2022/05/15 06:06:06;;;;;;;;;;;12.40;99.90;;;;;;5010399;28;19928;-82
2022/05/15 06:08:32;;;;;;;;;;;12.50;99.90;;;;;;5010874;28;19921;-79
2022/05/15 06:10:57;;;;;;;;;;;12.60;99.90;;;;;;5004465;28;19977;-80
2022/05/15 06:13:23;;;;;;;;;;;12.60;99.90;;;;;;4991749;28;20282;-79
2022/05/15 06:15:49;;;;;;;;;;;12.60;99.90;;;;;;4991515;28;19922;-80
2022/05/15 06:18:15;;;;;;;;;;;12.70;99.90;;;;;;4975425;28;20517;-79
2022/05/15 06:20:40;;;;;;;;;;;12.70;99.90;;;;;;5005831;28;19932;-79
2022/05/15 06:23:06;;;;;;;;;;;12.80;99.90;;;;;;5011028;28;19928;-79
2022/05/15 06:25:31;;;;;;;;;;;12.90;99.90;;;;;;4994102;28;20390;-80
2022/05/15 06:27:57;;;;;;;;;;;12.90;99.90;;;;;;5010144;28;19925;-79
2022/05/15 06:30:23;;;;;;;;;;;13.00;99.90;;;;;;4994754;28;20398;-79
2022/05/15 06:32:48;;;;;;;;;;;13.10;99.90;;;;;;5010488;28;19928;-79
2022/05/15 06:35:14;;;;;;;;;;;13.20;99.90;;;;;;5010809;28;20350;-79
2022/05/15 06:37:40;;;;;;;;;;;13.20;99.90;;;;;;4997329;28;20023;-79
2022/05/15 06:40:07;;;;;;;;;;;13.30;99.90;;;;;;4991108;28;19965;-79
2022/05/15 06:42:34;;;;;;;;;;;13.40;99.90;;;;;;5009826;28;20477;-79
2022/05/15 06:44:59;;;;;;;;;;;13.50;99.90;;;;;;4994543;28;20286;-79
2022/05/15 06:47:25;;;;;;;;;;;13.50;99.90;;;;;;5010577;28;19925;-79
2022/05/15 06:49:51;;;;;;;;;;;13.60;99.90;;;;;;4999051;28;19932;-79
2022/05/15 06:52:17;;;;;;;;;;;13.70;99.90;;;;;;4986151;28;20004;-79
2022/05/15 06:54:42;;;;;;;;;;;13.70;99.90;;;;;;4994775;28;20402;-79
2022/05/15 06:59:52;;;;;;;;;;;13.80;99.90;;;;;;5011022;28;19928;-80
2022/05/15 07:02:18;;;;;;;;;;;13.90;99.90;;;;;;5005835;28;19921;-80
2022/05/15 07:04:43;;;;;;;;;;;13.90;99.90;;;;;;4974785;28;20379;-79
2022/05/15 07:07:09;;;;;;;;;;;14.00;99.90;;;;;;4995825;28;20000;-79
2022/05/15 07:09:35;;;;;;;;;;;14.10;99.90;;;;;;5010801;28;20413;-79
2022/05/15 07:12:02;;;;;;;;;;;14.10;99.90;;;;;;5007249;28;19921;-79
2022/05/15 07:14:28;;;;;;;;;;;14.20;99.90;;;;;;5010732;28;20008;-79
2022/05/15 07:16:54;;;;;;;;;;;14.20;99.90;;;;;;5009726;28;20005;-81
2022/05/15 07:19:19;;;;;;;;;;;14.30;99.90;;;;;;4993616;28;19922;-79
2022/05/15 07:21:45;;;;;;;;;;;14.40;99.90;;;;;;4991109;28;19926;-79
2022/05/15 07:24:11;;;;;;;;;;;14.40;99.90;;;;;;4990466;28;19936;-79
2022/05/15 07:26:42;;;;;;;;;;;14.50;99.90;;;;;;5008423;28;19991;-79
2022/05/15 07:29:07;;;;;;;;;;;14.50;99.90;;;;;;5009298;28;19960;-79
2022/05/15 07:31:33;;;;;;;;;;;14.60;99.90;;;;;;5010122;28;20040;-79
2022/05/15 07:33:58;;;;;;;;;;;14.70;99.90;;;;;;4993568;28;19929;-81
2022/05/15 07:36:24;;;;;;;;;;;14.80;99.90;;;;;;5008888;28;19925;-79
2022/05/15 07:38:50;;;;;;;;;;;14.90;99.90;;;;;;5009987;28;19968;-79
2022/05/15 07:41:16;;;;;;;;;;;14.90;99.90;;;;;;5008138;28;19936;-79
2022/05/15 07:43:41;;;;;;;;;;;15.00;99.90;;;;;;4975794;28;19968;-79
2022/05/15 07:46:07;;;;;;;;;;;15.10;99.90;;;;;;5009779;28;19926;-79
2022/05/15 07:48:33;;;;;;;;;;;15.20;99.90;;;;;;5009116;28;19929;-79
2022/05/15 07:50:58;;;;;;;;;;;15.20;99.90;;;;;;5009250;28;19947;-80
2022/05/15 07:53:24;;;;;;;;;;;15.30;99.90;;;;;;5008912;28;19929;-78
2022/05/15 07:55:50;;;;;;;;;;;15.40;99.90;;;;;;5008637;28;19961;-79
2022/05/15 07:58:15;;;;;;;;;;;15.50;99.90;;;;;;4990641;28;19922;-78
2022/05/15 08:00:41;;;;;;;;;;;15.50;99.90;;;;;;5007814;28;19925;-78
2022/05/15 08:03:08;;;;;;;;;;;15.60;99.90;;;;;;4990214;28;19921;-78
2022/05/15 08:08:18;;;;;;;;;;;15.80;99.90;;;;;;4994011;28;19921;-78
2022/05/15 08:10:44;;;;;;;;;;;15.90;99.90;;;;;;5009170;28;19921;-78
2022/05/15 08:13:12;;;;;;;;;;;16.00;99.90;;;;;;5009169;28;19991;-79
2022/05/15 08:15:38;;;;;;;;;;;16.00;99.90;;;;;;5010100;28;20004;-77
2022/05/15 08:23:42;;;;;;;;;;;16.30;99.90;;;;;;5015750;28;19948;-79
2022/05/15 08:26:07;;;;;;;;;;;16.40;99.90;;;;;;4998500;28;19922;-79
2022/05/15 08:28:34;;;;;;;;;;;16.50;99.90;;;;;;5009650;28;20355;-80
2022/05/15 08:31:00;;;;;;;;;;;16.60;99.90;;;;;;5011919;28;20289;-78
2022/05/15 08:33:26;;;;;;;;;;;16.70;99.90;;;;;;4994308;28;20378;-79
2022/05/15 08:35:52;;;;;;;;;;;16.80;99.90;;;;;;4977830;28;19961;-79
2022/05/15 08:38:18;;;;;;;;;;;16.90;99.90;;;;;;5012753;28;19921;-79
2022/05/15 08:40:50;;;;;;;;;;;17.00;99.90;;;;;;4994499;28;19976;-79
2022/05/15 08:43:20;;;;;;;;;;;17.10;99.90;;;;;;5012352;28;20017;-79
2022/05/15 08:46:01;;;;;;;;;;;16.90;99.90;;;;;;5010489;28;19925;-79
2022/05/15 08:48:28;;;;;;;;;;;17.20;99.90;;;;;;5012834;28;19945;-79
2022/05/15 08:50:54;;;;;;;;;;;17.30;99.90;;;;;;5011055;28;19925;-79
2022/05/15 08:53:22;;;;;;;;;;;17.40;99.90;;;;;;5012026;28;19937;-80
2022/05/15 08:55:50;;;;;;;;;;;17.50;99.90;;;;;;5012273;28;20760;-79
2022/05/15 08:58:19;;;;;;;;;;;17.60;99.90;;;;;;5012015;28;19929;-79
2022/05/15 09:00:46;;;;;;;;;;;17.70;99.90;;;;;;5013125;28;19925;-79
2022/05/15 09:03:18;;;;;;;;;;;17.70;99.90;;;;;;5011484;28;20000;-79
2022/05/15 09:05:51;;;;;;;;;;;17.70;99.90;;;;;;5008925;28;20004;-79
2022/05/15 09:08:20;;;;;;;;;;;17.80;99.90;;;;;;4994313;28;19926;-80
2022/05/15 09:10:50;;;;;;;;;;;17.80;99.90;;;;;;5003913;28;19925;-80
2022/05/15 09:13:24;;;;;;;;;;;17.90;99.90;;;;;;4993911;28;19940;-80
2022/05/15 09:15:58;;;;;;;;;;;17.90;99.90;;;;;;4977688;28;19979;-80
2022/05/15 09:18:24;;;;;;;;;;;18.00;99.90;;;;;;5001308;28;19976;-80
2022/05/15 09:20:52;;;;;;;;;;;18.20;99.90;;;;;;4982783;28;19922;-81
2022/05/15 09:23:26;;;;;;;;;;;18.30;99.90;;;;;;4995273;28;19925;-81
2022/05/15 09:25:59;;;;;;;;;;;18.40;99.90;;;;;;5006660;28;19925;-81
2022/05/15 09:28:27;;;;;;;;;;;18.60;99.90;;;;;;4991702;28;19925;-81
2022/05/15 09:30:53;;;;;;;;;;;18.60;99.90;;;;;;4989060;28;19939;-82
2022/05/15 09:33:50;;;;;;;;;;;18.70;99.90;;;;;;4996757;28;20866;-80
2022/05/15 09:36:18;;;;;;;;;;;18.70;99.90;;;;;;4983456;28;19925;-82
2022/05/15 09:38:44;;;;;;;;;;;18.80;99.90;;;;;;5006108;28;19929;-81
2022/05/15 09:44:30;;;;;;;;;;;19.00;99.90;;;;;;5008423;28;19925;-82
2022/05/15 09:47:01;;;;;;;;;;;19.00;99.90;;;;;;5003377;28;20271;-80
2022/05/15 09:49:28;;;;;;;;;;;19.10;99.90;;;;;;5008646;28;19933;-80
2022/05/15 09:51:55;;;;;;;;;;;19.20;99.90;;;;;;4998292;28;20387;-82
2022/05/15 09:54:30;;;;;;;;;;;19.20;96.40;;;;;;4992017;28;19948;-79
2022/05/15 09:57:08;;;;;;;;;;;19.20;99.90;;;;;;4990673;28;19926;-80
2022/05/15 09:59:33;;;;;;;;;;;19.30;99.90;;;;;;4991783;28;19921;-80
2022/05/15 10:02:00;;;;;;;;;;;19.40;98.90;;;;;;5000648;28;19971;-80
2022/05/15 10:04:31;;;;;;;;;;;19.50;97.10;;;;;;5002167;28;19921;-81
2022/05/15 10:06:58;;;;;;;;;;;19.60;96.40;;;;;;5006660;28;19925;-81
2022/05/15 10:09:31;;;;;;;;;;;19.70;97.10;;;;;;4991743;28;19929;-81
2022/05/15 10:12:03;;;;;;;;;;;19.80;96.30;;;;;;4999591;28;20410;-82
2022/05/15 10:14:52;;;;;;;;;;;19.90;97.20;;;;;;4975454;28;19928;-81
2022/05/15 10:17:19;;;;;;;;;;;20.00;96.30;;;;;;4991406;28;19922;-82
2022/05/15 10:19:47;;;;;;;;;;;20.10;95.80;;;;;;4992046;28;19969;-81
2022/05/15 10:22:30;;;;;;;;;;;20.20;95.10;;;;;;4998989;28;20280;-81
2022/05/15 10:24:57;;;;;;;;;;;20.30;95.20;;;;;;5003730;28;19963;-81
2022/05/15 10:27:30;;;;;;;;;;;20.50;93.80;;;;;;4989826;28;19976;-81
2022/05/15 10:29:58;;;;;;;;;;;20.60;95.40;;;;;;4991590;28;19926;-81
2022/05/15 10:32:29;;;;;;;;;;;20.60;94.10;;;;;;5008038;28;19929;-81
2022/05/15 10:34:56;;;;;;;;;;;20.70;93.10;;;;;;5015954;28;19964;-81
2022/05/15 10:37:37;;;;;;;;;;;20.70;92.00;;;;;;5029373;28;20370;-83
2022/05/15 10:40:21;;;;;;;;;;;20.70;93.90;;;;;;5029363;28;19921;-82
2022/05/15 10:42:58;;;;;;;;;;;20.70;92.40;;;;;;5007367;28;20007;-83
2022/05/15 10:45:37;;;;;;;;;;;20.80;92.30;;;;;;5009846;28;19936;-82
2022/05/15 10:48:21;;;;;;;;;;;20.90;88.20;;;;;;5026298;28;19944;-82
2022/05/15 10:50:59;;;;;;;;;;;20.90;87.50;;;;;;4993510;28;20367;-82
2022/05/15 10:59:24;;;;;;;;;;;21.00;85.40;;;;;;4990589;28;20559;-82
2022/05/15 11:02:03;;;;;;;;;;;21.20;85.00;;;;;;5006192;28;20316;-82
2022/05/15 11:04:41;;;;;;;;;;;21.30;87.00;;;;;;4993537;28;19925;-81
2022/05/15 11:07:15;;;;;;;;;;;21.40;80.50;;;;;;4997967;28;19928;-82
2022/05/15 11:09:59;;;;;;;;;;;21.50;82.80;;;;;;4990576;28;19925;-82
2022/05/15 11:12:43;;;;;;;;;;;21.70;82.00;;;;;;5004643;28;20331;-82
2022/05/15 11:15:21;;;;;;;;;;;21.80;79.70;;;;;;5010850;28;19951;-82
2022/05/15 11:17:54;;;;;;;;;;;21.80;77.30;;;;;;5015436;28;20464;-83
2022/05/15 11:20:23;;;;;;;;;;;21.80;80.40;;;;;;5002483;28;19921;-84
2022/05/15 11:22:52;;;;;;;;;;;21.90;76.90;;;;;;5009808;28;19921;-82
2022/05/15 11:25:24;;;;;;;;;;;22.10;77.30;;;;;;5010164;28;19925;-82
2022/05/15 11:27:53;;;;;;;;;;;22.20;75.90;;;;;;5009033;28;20036;-81
2022/05/15 11:30:26;;;;;;;;;;;22.40;76.60;;;;;;5010105;28;19925;-83
2022/05/15 11:32:52;;;;;;;;;;;22.60;70.30;;;;;;5010464;28;19921;-82
2022/05/15 11:35:17;;;;;;;;;;;22.70;71.30;;;;;;5010041;28;19951;-82
2022/05/15 11:37:51;;;;;;;;;;;22.70;73.20;;;;;;5008980;28;19925;-82
2022/05/15 11:40:34;;;;;;;;;;;22.90;74.10;;;;;;5010084;28;19926;-82
2022/05/15 11:43:19;;;;;;;;;;;23.20;75.40;;;;;;5009567;28;20278;-81
2022/05/15 11:45:48;;;;;;;;;;;23.40;69.30;;;;;;5009361;28;20313;-82
2022/05/15 11:48:17;;;;;;;;;;;23.60;70.50;;;;;;5009772;28;19921;-82
2022/05/15 11:51:01;;;;;;;;;;;23.70;68.10;;;;;;5000406;28;20490;-80
2022/05/15 11:53:32;;;;;;;;;;;23.80;65.60;;;;;;4991168;28;20563;-82
2022/05/15 11:55:59;;;;;;;;;;;23.70;70.00;;;;;;4989569;28;19928;-82
2022/05/15 11:58:32;;;;;;;;;;;23.70;66.10;;;;;;4989458;28;19922;-83
2022/05/15 12:00:59;;;;;;;;;;;23.70;65.90;;;;;;4991850;28;19921;-81
2022/05/15 12:03:34;;;;;;;;;;;23.90;66.90;;;;;;4992682;28;19972;-83
2022/05/15 12:06:02;;;;;;;;;;;24.10;66.30;;;;;;4980337;28;19921;-81
2022/05/15 12:08:30;;;;;;;;;;;24.30;65.40;;;;;;4993872;28;20051;-82
2022/05/15 12:10:57;;;;;;;;;;;24.50;61.80;;;;;;4976958;28;19972;-81
2022/05/15 12:13:27;;;;;;;;;;;24.80;62.40;;;;;;4977562;28;19933;-82
2022/05/15 12:16:12;;;;;;;;;;;25.10;64.20;;;;;;4994337;28;19980;-82
2022/05/15 12:18:39;;;;;;;;;;;25.40;60.60;;;;;;4993494;28;20008;-82
2022/05/15 12:21:05;;;;;;;;;;;25.70;60.50;;;;;;4994175;28;20429;-82
2022/05/15 12:23:36;;;;;;;;;;;25.90;61.50;;;;;;4996936;28;19925;-81
2022/05/15 12:26:17;;;;;;;;;;;26.10;64.50;;;;;;5012691;28;19922;-82
2022/05/15 12:28:52;;;;;;;;;;;26.40;66.90;;;;;;5012412;28;20195;-82
2022/05/15 12:31:18;;;;;;;;;;;26.60;64.10;;;;;;5012757;28;19928;-78
2022/05/15 12:33:44;;;;;;;;;;;26.80;61.30;;;;;;5012812;28;19925;-77
2022/05/15 12:36:12;;;;;;;;;;;27.00;66.50;;;;;;5008769;28;19922;-77
2022/05/15 12:38:38;;;;;;;;;;;27.10;64.00;;;;;;5012731;28;20343;-77
2022/05/15 12:41:07;;;;;;;;;;;27.30;61.30;;;;;;5011947;28;19929;-77
2022/05/15 12:43:34;;;;;;;;;;;27.40;59.20;;;;;;5012421;28;19925;-77
2022/05/15 12:46:00;;;;;;;;;;;27.70;61.10;;;;;;5013422;28;19996;-77
2022/05/15 12:48:27;;;;;;;;;;;27.90;60.00;;;;;;5014373;28;19976;-77
2022/05/15 12:51:05;;;;;;;;;;;28.20;64.30;;;;;;5011941;28;19929;-77
2022/05/15 12:53:32;;;;;;;;;;;28.40;58.80;;;;;;4994458;28;19991;-79
2022/05/15 12:56:18;;;;;;;;;;;28.60;57.80;;;;;;4992778;28;19925;-77
2022/05/15 12:58:49;;;;;;;;;;;28.70;60.50;;;;;;4983949;28;20373;-77
2022/05/15 13:01:15;;;;;;;;;;;28.60;57.20;;;;;;4977161;28;19932;-77
2022/05/15 13:03:42;;;;;;;;;;;28.60;57.40;;;;;;4992562;28;19926;-77
2022/05/15 13:06:08;;;;;;;;;;;28.70;57.20;;;;;;5001308;28;19922;-77
2022/05/15 13:08:43;;;;;;;;;;;29.00;56.60;;;;;;4993617;28;19926;-77
2022/05/15 13:11:11;;;;;;;;;;;29.20;59.30;;;;;;4997045;28;19922;-77
2022/05/15 13:13:38;;;;;;;;;;;29.50;56.00;;;;;;5011908;28;19925;-77
2022/05/15 13:16:05;;;;;;;;;;;29.70;51.60;;;;;;5012346;28;19931;-77
2022/05/15 13:18:33;;;;;;;;;;;30.00;58.60;;;;;;5012314;28;20302;-78
2022/05/15 13:21:01;;;;;;;;;;;30.20;54.80;;;;;;5009044;28;19922;-77
2022/05/15 13:23:32;;;;;;;;;;;30.40;54.60;;;;;;4994797;28;19922;-77
2022/05/15 13:25:59;;;;;;;;;;;30.60;53.60;;;;;;4991810;28;20008;-77
2022/05/15 13:28:24;;;;;;;;;;;30.70;53.10;;;;;;5010957;28;19947;-77
2022/05/15 13:30:50;;;;;;;;;;;30.70;50.00;;;;;;5010771;28;20289;-77
2022/05/15 13:33:21;;;;;;;;;;;30.80;52.30;;;;;;5013485;28;19926;-77
2022/05/15 13:35:49;;;;;;;;;;;30.80;47.30;;;;;;5010753;28;19925;-77
2022/05/15 13:38:19;;;;;;;;;;;30.90;49.80;;;;;;4993805;28;20441;-77
2022/05/15 13:43:38;;;;;;;;;;;31.20;49.10;;;;;;4997038;28;19928;-77
2022/05/15 13:46:09;;;;;;;;;;;31.60;50.30;;;;;;5006540;28;19925;-77
2022/05/15 13:48:53;;;;;;;;;;;31.90;50.20;;;;;;4995705;28;19925;-79
2022/05/15 13:51:48;;;;;;;;;;;32.00;46.10;;;;;;5010488;28;19925;-77
2022/05/15 13:54:21;;;;;;;;;;;32.10;46.40;;;;;;4988111;28;20011;-77
2022/05/15 13:56:49;;;;;;;;;;;32.30;44.50;;;;;;5010552;28;19925;-78
2022/05/15 13:59:28;;;;;;;;;;;32.60;45.50;;;;;;5011556;28;19928;-77
2022/05/15 14:02:15;;;;;;;;;;;32.80;42.50;;;;;;5008434;28;19925;-77
2022/05/15 14:04:43;;;;;;;;;;;33.00;45.20;;;;;;4999308;28;19932;-77
2022/05/15 14:07:09;;;;;;;;;;;33.00;41.30;;;;;;4994302;28;19928;-77
2022/05/15 14:09:49;;;;;;;;;;;33.30;45.00;;;;;;5011727;28;19921;-77
2022/05/15 14:12:16;;;;;;;;;;;33.60;42.70;;;;;;5009002;28;20367;-77
2022/05/15 14:14:48;;;;;;;;;;;33.90;42.10;;;;;;5011153;28;19956;-77
2022/05/15 14:17:40;;;;;;;;;;;33.90;42.50;;;;;;5011529;28;19925;-78
2022/05/15 14:20:07;;;;;;;;;;;34.00;41.70;;;;;;5008700;28;19926;-77
2022/05/15 14:22:37;;;;;;;;;;;34.10;41.30;;;;;;5010849;28;19929;-77
2022/05/15 14:25:04;;;;;;;;;;;33.90;40.60;;;;;;5010327;28;19929;-77
2022/05/15 14:27:29;;;;;;;;;;;33.80;39.90;;;;;;5009685;28;19938;-77
2022/05/15 14:29:55;;;;;;;;;;;33.70;40.30;;;;;;5011704;28;19921;-77
2022/05/15 14:32:28;;;;;;;;;;;33.60;39.70;;;;;;5010191;28;19921;-78